Cadzand, Netherlands

8:35 AM CET on March 03, 2015 (GMT +0100)
Knokke Heist Oostkust | Change Station
CLOSE
Current Station
Personal Weather Station
Location: Heist aan zee, West-Vlaanderen
Elevation: 5 ft
Nearby Weather Stations

Elev 5 ft 51.32 °N, 3.29 °E | Updated 50 seconds ago

Light Rain
Light Rain
40.3 °F
Feels Like 38 °F
N
4.0
Wind Variable Wind from SE
Gusts 6.3 mph

Today
High -- | Low -- °F
--% Chance of Precip.
Yesterday
High -- | Low -- °F
Precip. -- in
7:28 AM 6:29 PM
Waxing Gibbous, 95% visible
Pressure 30.01 in
Visibility 5.0 miles
Clouds Few 1500 ft
Mostly Cloudy 3500 ft
Mostly Cloudy 4300 ft
Windchill 38 °F
Dew Point 38 °F
Humidity 92%
Rainfall 0.02 in
Snow Depth Not available.
UV 0.0 out of 12
Pollen Not available.
Air Quality Not available.
Flu Activity Not available.
METAR EBFN 030725Z 20010KT 8000 -RA FEW015 BKN035 BKN043 04/03 Q1016 BLU BLU TEMPO GRN

More Conditions Fewer Conditions

Pressure 30.01 in
Visibility 5.0 miles
Clouds Few 1500 ft
Mostly Cloudy 3500 ft
Mostly Cloudy 4300 ft
Windchill 38 °F
Dew Point 38 °F
Humidity 92%
Rainfall 0.02 in
Snow Depth Not available.
UV 0.0 out of 12
Pollen Not available.
Air Quality Not available.
Flu Activity Not available.
METAR EBFN 030725Z 20010KT 8000 -RA FEW015 BKN035 BKN043 04/03 Q1016 BLU BLU TEMPO GRN

More Conditions Fewer Conditions

10-Day Weather Forecast

Almanac

Astronomy

Mar. 03, 2015 Rise Set
Actual Time
Civil Twilight
Nautical Twilight
Astronomical Twilight
Moon
Length of Visible Light
Length of Day
Tomorrow will be .
, % of the Moon is Illuminated

Today's Extremes

Country Highs Country Lows

Community

WunderPhotos

Upload Photos

1,802,073 photos uploaded!

WunderBlogs® & News

Nearby

Air Quality

  Air Quality AQ Index Pollutant
Not available.

Snow Depth

Station Depth Elevation

Earthquake Activity

City Distance Mag. Time & Date
Minimum magnitude displayed is 2.5.

Coastal Water Temperatures

Place Temperature

Nearby Weather Stations